This is the latest recevied weather packets stored in our database for station/object SQ6XL-13. If no packets are shown the sender has not sent any weather packets the latest 10 day(s).
| Time | Temp. | Humidity | Pressure | Rain* | Wind** | Luminosity | Snow |
|---|---|---|---|---|---|---|---|
| 1787417404 | 16.67° C | 71% | 1017.6 hPa | 0 mm | - | - | - |
| 1787416900 | 16.67° C | 71% | 1017.5 hPa | 0 mm | - | - | - |
| 1787416350 | 16.67° C | 70% | 1017.4 hPa | 0 mm | - | - | - |
| 1787415800 | 16.67° C | 72% | 1017.3 hPa | 0 mm | - | - | - |
| 1787415250 | 16.67° C | 71% | 1017.2 hPa | 0 mm | - | - | - |
| 1787414660 | 17.22° C | 71% | 1017 hPa | 0 mm | - | - | - |
| 1787414130 | 17.22° C | 73% | 1016.9 hPa | 0 mm | - | - | - |
| 1787413600 | 17.22° C | 72% | 1016.9 hPa | 0 mm | - | - | - |
| 1787413110 | 16.67° C | 76% | 1016.8 hPa | 0 mm | - | - | - |
| 1787412555 | 16.11° C | 78% | 1016.8 hPa | 0 mm | - | - | - |
| 1787411989 | 15.56° C | 81% | 1016.7 hPa | 0.51 mm | - | - | - |
| 1787411455 | 15.56° C | 86% | 1016.6 hPa | 0.51 mm | - | - | - |
| 1787410893 | 15.56° C | 86% | 1016.4 hPa | 0 mm | - | - | - |
| 1787410370 | 16.11° C | 85% | 1016.5 hPa | 0 mm | - | - | - |
| 1787409795 | 16.67° C | 85% | 1016.2 hPa | 0 mm | - | - | - |
| 1787409205 | 16.11° C | 84% | 1016 hPa | 0 mm | - | - | - |
| 1787408635 | 16.67° C | 83% | 1015.9 hPa | 0 mm | - | - | - |
| 1787408045 | 17.78° C | 82% | 1015.9 hPa | 0 mm | - | - | - |
| 1787407544 | 18.33° C | 80% | 1015.8 hPa | 0 mm | - | - | - |
| 1787406960 | 18.33° C | 80% | 1015.7 hPa | 0 mm | - | - | - |
| 1787406471 | 17.78° C | 83% | 1015.6 hPa | 0 mm | - | - | - |
| 1787405944 | 17.22° C | 85% | 1015.5 hPa | 0 mm | - | - | - |
| 1787405390 | 17.22° C | 86% | 1015.2 hPa | 0 mm | - | - | - |
| 1787404820 | 16.67° C | 86% | 1015.1 hPa | 0 mm | - | - | - |
| 1787404324 | 16.67° C | 85% | 1015.3 hPa | 0 mm | - | - | - |
* Rain latest hour (hover to see other rain measurements)
** Current wind speed in m/s (hover to see current wind gust speed)